createdAt,value
2023-01-31T00:01:21.938Z,9.00
2023-01-31T00:03:49.077Z,8.10
2023-01-31T00:06:53.908Z,7.83
2023-01-31T00:09:20.854Z,8.40
2023-01-31T00:11:47.706Z,8.53
2023-01-31T00:14:18.229Z,7.73
2023-01-31T00:16:45.055Z,7.53
2023-01-31T00:19:11.941Z,8.67
2023-01-31T00:21:41.776Z,8.30
2023-01-31T00:24:12.753Z,8.00
2023-01-31T00:26:39.834Z,7.07
2023-01-31T00:29:06.689Z,7.77
2023-01-31T00:31:35.006Z,7.23
2023-01-31T00:34:04.523Z,7.47
2023-01-31T00:36:34.822Z,7.50
2023-01-31T00:39:02.608Z,6.83
2023-01-31T00:41:30.059Z,7.67
2023-01-31T00:43:59.567Z,7.17
2023-01-31T00:46:26.503Z,7.00
2023-01-31T00:48:53.857Z,6.57
2023-01-31T00:51:25.585Z,7.43
2023-01-31T00:53:53.152Z,7.77
2023-01-31T00:56:23.925Z,7.27
2023-01-31T00:58:52.841Z,7.97
2023-01-31T01:01:27.189Z,7.40
2023-01-31T01:03:54.685Z,6.97
2023-01-31T01:06:23.754Z,6.87
2023-01-31T01:08:50.535Z,7.00
2023-01-31T01:11:25.465Z,6.80
2023-01-31T01:13:52.337Z,6.50
2023-01-31T01:16:24.023Z,7.03
2023-01-31T01:18:51.049Z,7.07
2023-01-31T01:21:21.945Z,6.97
2023-01-31T01:23:50.883Z,6.63
2023-01-31T01:26:23.876Z,6.50
2023-01-31T01:28:50.939Z,6.33
2023-01-31T01:31:18.382Z,6.60
2023-01-31T01:33:48.200Z,7.27
2023-01-31T01:36:20.707Z,6.53
2023-01-31T01:38:47.752Z,6.20
2023-01-31T01:41:17.341Z,6.23
2023-01-31T01:43:44.127Z,6.67
2023-01-31T01:46:34.435Z,6.27
2023-01-31T01:49:04.388Z,6.73
2023-01-31T01:51:34.799Z,6.23
2023-01-31T01:54:03.699Z,6.97
2023-01-31T01:56:37.690Z,6.40
2023-01-31T01:59:15.300Z,6.40
2023-01-31T02:01:42.201Z,7.03
2023-01-31T02:04:12.790Z,7.30
2023-01-31T02:06:41.863Z,6.80
2023-01-31T02:09:09.243Z,6.57
2023-01-31T02:11:38.140Z,7.20
2023-01-31T02:14:06.878Z,6.83
2023-01-31T02:16:36.181Z,7.03
2023-01-31T02:19:03.120Z,6.27
2023-01-31T02:22:20.162Z,6.07
2023-01-31T02:24:59.363Z,5.80
2023-01-31T02:27:35.018Z,6.30
2023-01-31T02:30:07.691Z,5.83
2023-01-31T02:32:40.248Z,5.73
2023-01-31T02:35:11.004Z,5.43
2023-01-31T02:37:56.637Z,5.63
2023-01-31T02:40:39.841Z,6.23
2023-01-31T02:43:15.581Z,6.00
2023-01-31T02:45:45.210Z,5.80
2023-01-31T02:48:33.539Z,5.70
2023-01-31T02:51:12.380Z,5.47
2023-01-31T02:53:49.696Z,5.50
2023-01-31T02:56:24.969Z,5.90
2023-01-31T02:59:07.919Z,5.97
2023-01-31T03:01:40.267Z,5.87
2023-01-31T03:04:11.402Z,4.97
2023-01-31T03:06:41.521Z,5.90
2023-01-31T03:09:28.401Z,4.87
2023-01-31T03:12:42.659Z,5.67
2023-01-31T03:15:24.933Z,4.87
2023-01-31T03:18:07.503Z,4.53
2023-01-31T03:20:41.128Z,5.33
2023-01-31T03:23:29.872Z,4.73
2023-01-31T03:26:02.492Z,4.87
2023-01-31T03:28:31.990Z,5.03
2023-01-31T03:31:16.533Z,4.90
2023-01-31T03:33:48.762Z,4.80
2023-01-31T03:36:37.184Z,4.93
2023-01-31T03:39:42.410Z,4.10
2023-01-31T03:42:23.005Z,5.00
2023-01-31T03:45:02.631Z,4.10
2023-01-31T03:47:31.159Z,4.67
2023-01-31T03:50:02.820Z,4.00
2023-01-31T03:52:36.194Z,4.50
2023-01-31T03:55:10.848Z,4.77
2023-01-31T03:57:41.267Z,4.63
2023-01-31T04:00:09.426Z,4.40
2023-01-31T04:02:37.168Z,4.23
2023-01-31T04:05:09.650Z,4.33
2023-01-31T04:07:36.542Z,4.47
2023-01-31T04:10:09.557Z,3.80
2023-01-31T04:12:37.234Z,3.80
2023-01-31T04:15:09.970Z,4.37
2023-01-31T04:17:39.034Z,4.00
2023-01-31T04:20:06.841Z,5.00
2023-01-31T04:22:33.796Z,4.77
2023-01-31T04:25:02.814Z,4.00
2023-01-31T04:27:29.614Z,4.77
2023-01-31T04:29:58.629Z,4.37
2023-01-31T04:32:25.392Z,3.83
2023-01-31T04:34:54.396Z,4.30
2023-01-31T04:37:21.359Z,4.07
2023-01-31T04:39:50.252Z,4.33
2023-01-31T04:42:17.090Z,3.97
2023-01-31T04:44:43.893Z,3.87
2023-01-31T04:47:13.053Z,4.17
2023-01-31T04:49:42.072Z,3.90
2023-01-31T04:52:10.554Z,4.57
2023-01-31T04:54:39.782Z,3.67
2023-01-31T04:57:09.084Z,3.67
2023-01-31T04:59:36.170Z,3.90
2023-01-31T05:02:02.990Z,4.07
2023-01-31T05:04:29.756Z,4.20
2023-01-31T05:07:01.253Z,5.07
2023-01-31T05:09:28.023Z,4.67
2023-01-31T05:11:57.229Z,3.83
2023-01-31T05:14:24.060Z,3.50
2023-01-31T05:16:50.879Z,4.00
2023-01-31T05:19:17.735Z,3.70
2023-01-31T05:21:59.133Z,4.13
2023-01-31T05:24:32.787Z,4.20
2023-01-31T05:27:04.963Z,4.13
2023-01-31T05:29:32.492Z,3.80
2023-01-31T05:32:02.076Z,3.83
2023-01-31T05:34:30.608Z,3.73
2023-01-31T05:37:00.096Z,3.60
2023-01-31T05:39:26.925Z,3.30
2023-01-31T05:41:53.805Z,3.77
2023-01-31T05:44:23.315Z,3.13
2023-01-31T05:46:50.148Z,3.57
2023-01-31T05:49:17.115Z,3.43
2023-01-31T05:51:43.877Z,3.80
2023-01-31T05:54:11.282Z,3.67
2023-01-31T05:56:39.218Z,3.50
2023-01-31T05:59:06.231Z,4.00
2023-01-31T06:01:33.500Z,3.60
2023-01-31T06:04:02.653Z,2.97
2023-01-31T06:06:33.751Z,3.30
2023-01-31T06:09:02.670Z,3.70
2023-01-31T06:11:29.475Z,3.73
2023-01-31T06:13:58.504Z,3.70
2023-01-31T06:16:27.893Z,3.60
2023-01-31T06:18:55.721Z,3.47
2023-01-31T06:21:22.811Z,3.70
2023-01-31T06:23:49.602Z,3.47
2023-01-31T06:26:16.441Z,3.70
2023-01-31T06:28:45.244Z,3.53
2023-01-31T06:31:13.050Z,3.47
2023-01-31T06:33:46.920Z,4.13
2023-01-31T06:36:19.183Z,4.10
2023-01-31T06:38:50.203Z,4.13
2023-01-31T06:41:19.462Z,3.77
2023-01-31T06:43:46.261Z,4.13
2023-01-31T06:46:13.144Z,3.97
2023-01-31T06:48:39.999Z,3.70
2023-01-31T06:51:06.879Z,4.00
2023-01-31T06:53:33.680Z,3.73
2023-01-31T06:56:00.461Z,3.97
2023-01-31T06:58:28.121Z,4.17
2023-01-31T07:00:58.805Z,4.27
2023-01-31T07:03:25.644Z,3.90
2023-01-31T07:05:52.910Z,3.43
2023-01-31T07:08:19.791Z,3.90
2023-01-31T07:10:48.351Z,4.40
2023-01-31T07:13:15.480Z,3.63
2023-01-31T07:15:42.400Z,3.77
2023-01-31T07:18:12.364Z,3.77
2023-01-31T07:20:42.733Z,3.77
2023-01-31T07:23:09.565Z,3.70
2023-01-31T07:25:36.341Z,4.23
2023-01-31T07:28:03.476Z,3.60
2023-01-31T07:30:30.557Z,4.07
2023-01-31T07:32:57.350Z,3.30
2023-01-31T07:35:24.167Z,4.17
2023-01-31T07:37:54.106Z,3.77
2023-01-31T07:40:20.881Z,4.00
2023-01-31T07:42:47.704Z,3.67
2023-01-31T07:45:23.431Z,4.07
2023-01-31T07:47:51.368Z,3.63
2023-01-31T07:50:18.374Z,3.80
2023-01-31T07:52:45.196Z,3.80
2023-01-31T07:55:11.954Z,4.07
2023-01-31T07:57:38.734Z,4.20
2023-01-31T08:00:28.570Z,3.77
2023-01-31T08:03:13.892Z,3.97
2023-01-31T08:05:43.280Z,3.43
2023-01-31T08:08:12.784Z,3.60
2023-01-31T08:10:40.446Z,3.60
2023-01-31T08:13:07.285Z,4.17
2023-01-31T08:15:34.342Z,3.17
2023-01-31T08:18:01.195Z,3.60
2023-01-31T08:20:30.624Z,4.50
2023-01-31T08:23:02.883Z,3.67
2023-01-31T08:25:30.707Z,3.60
2023-01-31T08:27:58.125Z,3.87
2023-01-31T08:30:29.770Z,3.87
2023-01-31T08:32:56.891Z,3.60
2023-01-31T08:35:25.949Z,3.50
2023-01-31T08:37:55.329Z,4.00
2023-01-31T08:40:25.729Z,4.10
2023-01-31T08:42:59.116Z,3.57
2023-01-31T08:45:26.052Z,4.17
2023-01-31T08:48:03.449Z,3.67
2023-01-31T08:50:33.082Z,3.40
2023-01-31T08:53:01.432Z,4.43
2023-01-31T08:55:31.266Z,3.83
2023-01-31T08:58:00.259Z,3.83
2023-01-31T09:00:27.262Z,3.30
2023-01-31T09:02:55.153Z,3.37
2023-01-31T09:05:22.278Z,3.57
2023-01-31T09:07:49.331Z,4.17
2023-01-31T09:10:19.039Z,3.43
2023-01-31T09:12:45.848Z,3.97
2023-01-31T09:15:12.734Z,3.43
2023-01-31T09:17:40.084Z,3.80
2023-01-31T09:20:10.318Z,3.40
2023-01-31T09:22:37.261Z,4.03
2023-01-31T09:25:04.897Z,3.53
2023-01-31T09:27:32.195Z,3.53
2023-01-31T09:29:59.044Z,3.93
2023-01-31T09:32:30.182Z,3.60
2023-01-31T09:34:59.590Z,3.60
2023-01-31T09:37:26.463Z,3.43
2023-01-31T09:39:53.254Z,3.60
2023-01-31T09:42:21.772Z,3.80
2023-01-31T09:45:29.552Z,3.37
2023-01-31T09:48:02.118Z,3.73
2023-01-31T09:50:50.166Z,3.50
2023-01-31T09:53:24.697Z,3.40
2023-01-31T09:56:13.382Z,3.93
2023-01-31T09:59:16.460Z,3.50
2023-01-31T10:02:04.327Z,3.17
2023-01-31T10:04:34.167Z,5.57
2023-01-31T10:07:05.055Z,5.20
2023-01-31T10:09:46.219Z,4.17
2023-01-31T10:12:18.786Z,3.73
2023-01-31T10:14:53.067Z,3.10
2023-01-31T10:17:28.173Z,3.40
2023-01-31T10:20:14.658Z,3.30
2023-01-31T10:22:57.577Z,3.70
2023-01-31T10:25:30.140Z,3.70
2023-01-31T10:28:12.721Z,3.27
2023-01-31T10:30:48.976Z,3.70
2023-01-31T10:33:44.658Z,3.57
2023-01-31T10:36:36.955Z,3.40
2023-01-31T10:39:42.100Z,3.53
2023-01-31T10:42:15.751Z,3.63
2023-01-31T10:44:44.155Z,3.13
2023-01-31T10:47:18.286Z,3.47
2023-01-31T10:49:53.846Z,3.63
2023-01-31T10:52:58.428Z,3.27
2023-01-31T10:56:02.558Z,2.83
2023-01-31T10:58:29.410Z,2.97
2023-01-31T11:00:56.210Z,3.23
2023-01-31T11:03:23.182Z,2.60
2023-01-31T11:05:53.712Z,3.00
2023-01-31T11:08:41.814Z,3.20
2023-01-31T11:11:11.635Z,4.17
2023-01-31T11:13:38.750Z,2.87
2023-01-31T11:16:08.258Z,2.70
2023-01-31T11:18:55.327Z,2.50
2023-01-31T11:21:33.437Z,2.87
2023-01-31T11:24:07.976Z,2.20
2023-01-31T11:26:36.757Z,2.70
2023-01-31T11:29:09.468Z,2.57
2023-01-31T11:31:38.513Z,2.80
2023-01-31T11:34:05.935Z,2.70
2023-01-31T11:36:42.645Z,2.73
2023-01-31T11:39:27.051Z,2.93
2023-01-31T11:41:54.289Z,3.00
2023-01-31T11:44:22.134Z,3.20
2023-01-31T11:47:05.492Z,3.00
2023-01-31T11:49:34.819Z,2.83
2023-01-31T11:52:29.015Z,3.27
2023-01-31T11:54:58.179Z,2.90
2023-01-31T11:57:27.078Z,3.53
2023-01-31T11:59:54.957Z,2.53
2023-01-31T12:02:32.491Z,3.30
2023-01-31T12:04:59.333Z,2.87
2023-01-31T12:07:53.376Z,3.30
2023-01-31T12:10:43.620Z,3.60
2023-01-31T12:13:18.915Z,3.40
2023-01-31T12:16:03.081Z,3.60
2023-01-31T12:18:39.169Z,3.63
2023-01-31T12:21:27.567Z,4.03
2023-01-31T12:24:03.565Z,3.53
2023-01-31T12:26:47.308Z,3.80
2023-01-31T12:29:51.109Z,4.13
2023-01-31T12:32:37.936Z,3.83
2023-01-31T12:35:37.226Z,3.30
2023-01-31T12:38:09.882Z,3.20
2023-01-31T12:40:48.640Z,3.40
2023-01-31T12:43:30.331Z,4.23
2023-01-31T12:46:17.858Z,3.90
2023-01-31T12:48:47.920Z,3.40
2023-01-31T12:51:17.805Z,3.10
2023-01-31T12:53:50.848Z,3.47
2023-01-31T12:56:47.283Z,3.20
2023-01-31T12:59:26.296Z,3.60
2023-01-31T13:01:55.970Z,2.90
2023-01-31T13:04:28.939Z,3.40
2023-01-31T13:07:06.726Z,3.00
2023-01-31T13:09:37.189Z,2.93
2023-01-31T13:12:12.175Z,3.30
2023-01-31T13:15:04.196Z,3.57
2023-01-31T13:17:34.025Z,3.67
2023-01-31T13:20:10.632Z,3.43
2023-01-31T13:22:44.701Z,3.80
2023-01-31T13:25:26.508Z,3.57
2023-01-31T13:28:00.309Z,3.53
2023-01-31T13:30:46.192Z,3.63
2023-01-31T13:33:37.952Z,3.17
2023-01-31T13:36:24.317Z,3.37
2023-01-31T13:38:52.522Z,3.30
2023-01-31T13:41:29.375Z,3.77
2023-01-31T13:43:57.753Z,4.00
2023-01-31T13:46:34.309Z,3.50
2023-01-31T13:49:08.160Z,3.50
2023-01-31T13:51:46.736Z,3.33
2023-01-31T13:54:41.703Z,3.37
2023-01-31T13:57:19.295Z,3.67
2023-01-31T13:59:51.385Z,3.57
2023-01-31T14:02:20.703Z,3.70
2023-01-31T14:04:48.033Z,3.67
2023-01-31T14:07:16.079Z,3.70
2023-01-31T14:09:49.701Z,4.13
2023-01-31T14:12:17.176Z,4.10
2023-01-31T14:14:55.922Z,4.23
2023-01-31T14:17:29.186Z,4.27
2023-01-31T14:19:56.055Z,4.63
2023-01-31T14:22:23.754Z,4.63
2023-01-31T14:24:50.773Z,5.00
2023-01-31T14:27:24.758Z,4.10
2023-01-31T14:30:06.920Z,4.33
2023-01-31T14:32:41.153Z,4.77
2023-01-31T14:35:13.835Z,4.37
2023-01-31T14:38:14.256Z,4.50
2023-01-31T14:40:59.704Z,4.67
2023-01-31T14:43:44.707Z,5.13
2023-01-31T14:46:36.349Z,5.20
2023-01-31T14:49:54.155Z,4.97
2023-01-31T14:52:28.381Z,4.63
2023-01-31T14:55:19.124Z,4.50
2023-01-31T14:57:49.688Z,4.73
2023-01-31T15:00:18.903Z,4.97
2023-01-31T15:03:00.964Z,5.47
2023-01-31T15:05:37.515Z,5.33
2023-01-31T15:08:13.404Z,5.27
2023-01-31T15:11:30.488Z,5.93
2023-01-31T15:14:36.561Z,5.40
2023-01-31T15:17:27.596Z,6.40
2023-01-31T15:20:07.149Z,6.17
2023-01-31T15:22:33.920Z,6.40
2023-01-31T15:25:03.963Z,6.87
2023-01-31T15:27:32.240Z,7.50
2023-01-31T15:29:59.024Z,7.00
2023-01-31T15:32:42.679Z,6.80
2023-01-31T15:35:34.361Z,7.00
2023-01-31T15:38:16.918Z,6.87
2023-01-31T15:40:43.754Z,7.10
2023-01-31T15:43:25.526Z,6.20
2023-01-31T15:45:54.527Z,6.90
2023-01-31T15:48:21.811Z,6.57
2023-01-31T15:50:54.961Z,6.30
2023-01-31T15:53:23.581Z,6.47
2023-01-31T15:55:51.149Z,6.10
2023-01-31T15:58:19.712Z,6.40
2023-01-31T16:00:50.044Z,6.57
2023-01-31T16:03:24.153Z,6.67
2023-01-31T16:05:55.052Z,6.03
2023-01-31T16:08:35.746Z,6.83
2023-01-31T16:11:11.655Z,6.50
2023-01-31T16:13:41.566Z,6.53
2023-01-31T16:16:10.631Z,6.60
2023-01-31T16:18:40.120Z,7.07
2023-01-31T16:21:22.930Z,6.23
2023-01-31T16:23:57.643Z,6.27
2023-01-31T16:26:26.245Z,6.80
2023-01-31T16:29:00.194Z,7.10
2023-01-31T16:31:32.360Z,6.70
2023-01-31T16:34:04.665Z,7.37
2023-01-31T16:36:33.216Z,6.53
2023-01-31T16:39:04.886Z,6.87
2023-01-31T16:41:42.706Z,6.70
2023-01-31T16:44:21.566Z,7.13
2023-01-31T16:46:52.005Z,7.50
2023-01-31T16:49:25.683Z,7.43
2023-01-31T16:52:08.920Z,8.13
2023-01-31T16:54:50.237Z,7.53
2023-01-31T16:57:43.136Z,7.60
2023-01-31T17:00:25.075Z,7.70
2023-01-31T17:02:56.251Z,7.93
2023-01-31T17:05:25.172Z,7.83
2023-01-31T17:07:54.391Z,7.90
2023-01-31T17:10:23.558Z,7.90
2023-01-31T17:12:50.592Z,7.60
2023-01-31T17:15:19.078Z,7.23
2023-01-31T17:17:47.017Z,6.80
2023-01-31T17:20:15.144Z,7.40
2023-01-31T17:22:45.570Z,8.50
2023-01-31T17:25:22.645Z,7.10
2023-01-31T17:27:49.809Z,7.13
2023-01-31T17:30:17.872Z,7.20
2023-01-31T17:32:48.373Z,6.60
2023-01-31T17:35:23.793Z,7.87
2023-01-31T17:37:52.928Z,8.43
2023-01-31T17:40:22.099Z,7.43
2023-01-31T17:42:55.691Z,7.77
2023-01-31T17:45:25.232Z,7.70
2023-01-31T17:47:54.306Z,7.00
2023-01-31T17:50:26.009Z,8.10
2023-01-31T17:52:53.141Z,8.20
2023-01-31T17:55:24.090Z,7.90
2023-01-31T17:57:51.126Z,8.23
2023-01-31T18:00:18.736Z,7.33
2023-01-31T18:02:48.017Z,8.03
2023-01-31T18:05:18.701Z,7.20
2023-01-31T18:07:50.015Z,8.17
2023-01-31T18:10:16.983Z,8.30
2023-01-31T18:12:46.123Z,9.30
2023-01-31T18:15:12.946Z,8.17
2023-01-31T18:17:39.795Z,8.30
2023-01-31T18:20:07.283Z,8.93
2023-01-31T18:22:34.091Z,8.43
2023-01-31T18:25:03.145Z,8.37
2023-01-31T18:27:29.898Z,8.47
2023-01-31T18:29:59.190Z,8.00
2023-01-31T18:32:30.668Z,8.60
2023-01-31T18:34:59.584Z,8.50
2023-01-31T18:37:28.932Z,8.10
2023-01-31T18:39:55.749Z,7.43
2023-01-31T18:42:25.967Z,7.97
2023-01-31T18:44:55.143Z,8.73
2023-01-31T18:47:21.927Z,8.73
2023-01-31T18:49:48.693Z,8.77
2023-01-31T18:52:16.870Z,8.10
2023-01-31T18:54:43.747Z,8.63
2023-01-31T18:57:10.522Z,9.17
2023-01-31T18:59:39.664Z,8.77
2023-01-31T19:02:06.548Z,9.10
2023-01-31T19:04:35.952Z,9.13
2023-01-31T19:07:02.792Z,9.60
2023-01-31T19:09:32.184Z,10.20
2023-01-31T19:11:58.981Z,9.90
2023-01-31T19:14:25.790Z,10.63
2023-01-31T19:16:53.003Z,10.17
2023-01-31T19:19:24.492Z,10.50
2023-01-31T19:21:53.623Z,10.67
2023-01-31T19:24:20.999Z,11.03
2023-01-31T19:26:47.849Z,10.80
2023-01-31T19:29:15.653Z,11.77
2023-01-31T19:31:42.973Z,11.17
2023-01-31T19:34:12.285Z,11.57
2023-01-31T19:36:40.041Z,11.60
2023-01-31T19:39:08.606Z,11.53
2023-01-31T19:41:35.747Z,11.87
2023-01-31T19:44:02.642Z,11.33
2023-01-31T19:46:31.180Z,11.13
2023-01-31T19:49:00.427Z,10.60
2023-01-31T19:51:27.377Z,10.80
2023-01-31T19:53:55.199Z,10.23
2023-01-31T19:56:24.396Z,10.20
2023-01-31T19:58:53.481Z,9.97
2023-01-31T20:01:20.450Z,10.17
2023-01-31T20:03:47.440Z,11.00
2023-01-31T20:06:21.269Z,10.90
2023-01-31T20:08:56.190Z,10.87
2023-01-31T20:11:26.093Z,10.80
2023-01-31T20:13:55.671Z,10.37
2023-01-31T20:16:22.666Z,10.33
2023-01-31T20:18:51.341Z,10.07
2023-01-31T20:21:19.146Z,9.73
2023-01-31T20:23:46.041Z,10.30
2023-01-31T20:26:13.361Z,10.20
2023-01-31T20:28:43.464Z,9.60
2023-01-31T20:31:11.872Z,10.60
2023-01-31T20:33:40.829Z,9.80
2023-01-31T20:36:08.096Z,9.50
2023-01-31T20:38:37.152Z,9.90
2023-01-31T20:41:04.912Z,9.70
2023-01-31T20:43:33.981Z,9.83
2023-01-31T20:46:09.445Z,9.27
2023-01-31T20:48:38.781Z,9.13
2023-01-31T20:51:08.189Z,9.70
2023-01-31T20:53:37.397Z,9.63
2023-01-31T20:56:05.992Z,9.53
2023-01-31T20:58:37.919Z,8.57
2023-01-31T21:01:10.324Z,9.27
2023-01-31T21:03:37.307Z,9.33
2023-01-31T21:06:04.718Z,9.40
2023-01-31T21:08:35.681Z,9.20
2023-01-31T21:11:06.472Z,9.00
2023-01-31T21:13:33.350Z,9.07
2023-01-31T21:16:01.980Z,9.57
2023-01-31T21:18:32.474Z,9.37
2023-01-31T21:21:02.297Z,9.53
2023-01-31T21:23:29.115Z,9.93
2023-01-31T21:26:03.790Z,9.17
2023-01-31T21:28:35.396Z,9.73
2023-01-31T21:31:06.575Z,10.47
2023-01-31T21:33:36.122Z,9.60
2023-01-31T21:36:07.670Z,9.73
2023-01-31T21:38:37.039Z,10.83
2023-01-31T21:41:22.845Z,10.17
2023-01-31T21:43:52.220Z,9.63
2023-01-31T21:46:21.284Z,9.67
2023-01-31T21:48:52.972Z,9.63
2023-01-31T21:51:20.719Z,10.80
2023-01-31T21:53:47.520Z,8.90
2023-01-31T21:56:16.383Z,9.30
2023-01-31T21:58:45.534Z,10.07
2023-01-31T22:01:27.362Z,10.00
2023-01-31T22:03:54.557Z,10.07
2023-01-31T22:06:31.212Z,9.80
2023-01-31T22:08:59.214Z,8.43
2023-01-31T22:11:26.306Z,8.30
2023-01-31T22:13:55.940Z,9.03
2023-01-31T22:16:23.191Z,8.20
2023-01-31T22:18:50.045Z,9.60
2023-01-31T22:21:17.638Z,9.27
2023-01-31T22:23:49.140Z,8.17
2023-01-31T22:26:22.379Z,9.83
2023-01-31T22:28:51.941Z,9.60
2023-01-31T22:31:26.066Z,9.57
2023-01-31T22:34:00.027Z,9.70
2023-01-31T22:36:29.411Z,9.13
2023-01-31T22:38:56.216Z,9.53
2023-01-31T22:41:23.093Z,8.93
2023-01-31T22:43:55.970Z,10.03
2023-01-31T22:46:24.494Z,10.13
2023-01-31T22:48:51.429Z,9.40
2023-01-31T22:51:26.594Z,9.53
2023-01-31T22:53:54.487Z,9.77
2023-01-31T22:56:33.590Z,10.07
2023-01-31T22:59:02.237Z,9.90
2023-01-31T23:01:31.431Z,9.80
2023-01-31T23:04:01.671Z,9.67
2023-01-31T23:06:31.092Z,10.27
2023-01-31T23:09:00.099Z,11.27
2023-01-31T23:11:27.016Z,11.10
2023-01-31T23:13:56.104Z,11.80
2023-01-31T23:16:43.985Z,11.83
2023-01-31T23:19:10.921Z,11.53
2023-01-31T23:21:45.613Z,12.50
2023-01-31T23:24:14.475Z,11.67
2023-01-31T23:26:41.432Z,12.43
2023-01-31T23:29:08.224Z,11.93
2023-01-31T23:31:35.137Z,12.70
2023-01-31T23:34:06.090Z,12.83
2023-01-31T23:36:35.287Z,12.57
2023-01-31T23:39:02.211Z,13.20
2023-01-31T23:41:31.175Z,13.33
2023-01-31T23:44:00.260Z,13.17
2023-01-31T23:46:27.072Z,11.67
2023-01-31T23:48:56.541Z,12.03
2023-01-31T23:51:23.325Z,11.13
2023-01-31T23:53:50.131Z,10.53
2023-01-31T23:56:16.928Z,10.27
2023-01-31T23:58:43.668Z,8.87
